Smyrna Airport
KMQY : now visible

Airfield :











YOU CAN JOIN US ON...

 
LOGIN :

Register | Disclaimer

   EN    FR    IT 

 









Legend :    VFR   Marginal VFR   IFR   Intensive IFR   Very Intensive IFR
Visi :
Ceiling :
>= 8 km
>= 3000ft
5 to 8 km
1000 to 3000 ft
1500m to 5 km
500 to 1000 ft
800 to 1500m
200 to 500 ft
< 800m
< 200 ft
Symbols :   Thunderstorms  Fog  Heavy snow  Heavy precipitations  Wind > 20 kt







- Airport Elevation : 543 ft


KMQY - Smyrna

CURRENT METAR :
  • 201956Z VRB04KT 10SM CLR 30/16 A3020 RMK AO2 SLP228 T03000156

EXPIRED METARs :
  • 201856Z 16006KT 10SM SCT065 31/15 A3021 RMK AO2 SLP232 T03060150
  • 201756Z 15008KT 10SM SCT060 28/14 A3023 RMK AO2 SLP239 T02830144 10294 20200 58013

TAF KMQY
Valid from the 20 at 18:00 until the 21 at 18:00 UTC


201720Z 2018/2118 18010KT P6SM BKN060 BKN250
FM210000 17004KT P6SM SCT250
FM211400 18009KT P6SM SCT200
No reported NOTAMs for that airfield.



MET'MAP, your aeronautical weather chart ! - Copyright ORBIFLY December 2007 - Disclaimer

ORBIFLY MET'MAP TEAM :

Programming & Development : Alexandra Zaïnal
Concept & Development : Baudouin d'Aumeries
Co-Development & Prog : Marc-Olivier Méhu
Technical & hardware support : Manuel Goepfert

Contact : metmap@orbifly.com




SOURCES & CREDITS :

   NOAA       Earth
Advisory